createdAt,value
2019-01-26T00:09:55.014Z,6.40
2019-01-26T00:19:59.400Z,6.20
2019-01-26T00:30:09.839Z,5.97
2019-01-26T00:40:14.218Z,6.37
2019-01-26T00:50:18.672Z,5.90
2019-01-26T01:00:23.286Z,5.90
2019-01-26T01:10:27.851Z,5.87
2019-01-26T01:20:32.498Z,6.40
2019-01-26T01:30:36.971Z,5.77
2019-01-26T01:40:41.631Z,5.50
2019-01-26T01:50:46.027Z,6.20
2019-01-26T02:00:50.542Z,6.33
2019-01-26T02:10:54.921Z,6.00
2019-01-26T02:20:59.311Z,5.57
2019-01-26T02:31:03.567Z,5.57
2019-01-26T02:41:07.962Z,5.40
2019-01-26T02:51:12.394Z,4.83
2019-01-26T03:01:16.759Z,5.17
2019-01-26T03:11:21.233Z,5.13
2019-01-26T03:21:25.544Z,5.27
2019-01-26T03:31:29.921Z,5.70
2019-01-26T03:41:34.390Z,5.07
2019-01-26T03:51:38.755Z,5.33
2019-01-26T04:01:43.256Z,5.53
2019-01-26T04:11:47.576Z,4.70
2019-01-26T04:21:51.944Z,4.77
2019-01-26T04:31:56.350Z,4.67
2019-01-26T04:42:00.686Z,3.90
2019-01-26T04:52:05.405Z,4.53
2019-01-26T05:02:09.893Z,4.53
2019-01-26T05:12:14.286Z,4.63
2019-01-26T05:22:18.782Z,4.00
2019-01-26T05:32:23.284Z,3.93
2019-01-26T05:42:27.597Z,4.37
2019-01-26T05:52:32.052Z,4.33
2019-01-26T06:02:36.522Z,4.37
2019-01-26T06:12:40.849Z,4.17
2019-01-26T06:22:45.223Z,4.43
2019-01-26T06:32:49.646Z,17.90
2019-01-26T06:42:54.013Z,25.40
2019-01-26T06:52:58.525Z,19.63
2019-01-26T07:03:03.188Z,14.97
2019-01-26T07:13:07.646Z,14.23
2019-01-26T07:24:12.964Z,13.13
2019-01-26T07:34:17.400Z,12.40
2019-01-26T07:44:21.914Z,11.13
2019-01-26T07:54:26.420Z,11.53
2019-01-26T08:04:31.011Z,11.07
2019-01-26T08:14:35.470Z,10.43
2019-01-26T08:24:39.929Z,10.13
2019-01-26T08:34:44.628Z,9.57
2019-01-26T08:44:48.966Z,11.43
2019-01-26T08:54:53.770Z,9.60
2019-01-26T09:04:58.980Z,9.13
2019-01-26T09:15:03.527Z,12.03
2019-01-26T09:25:12.068Z,10.17
2019-01-26T09:35:16.474Z,9.57
2019-01-26T09:45:21.419Z,10.63
2019-01-26T09:55:26.019Z,10.83
2019-01-26T10:05:30.391Z,11.87
2019-01-26T10:15:35.072Z,10.90
2019-01-26T10:25:39.650Z,13.63
2019-01-26T10:36:04.037Z,12.93
2019-01-26T10:46:08.333Z,12.33
2019-01-26T10:56:12.738Z,12.43
2019-01-26T11:06:17.178Z,12.17
2019-01-26T11:16:21.864Z,11.37
2019-01-26T11:26:26.357Z,10.63
2019-01-26T11:36:30.861Z,10.30
2019-01-26T11:46:35.372Z,10.07
2019-01-26T11:56:44.291Z,9.53
2019-01-26T12:06:50.346Z,9.30
2019-01-26T12:16:55.006Z,9.50
2019-01-26T12:26:59.316Z,8.90
2019-01-26T12:37:03.702Z,8.83
2019-01-26T12:47:08.066Z,8.90
2019-01-26T12:57:12.609Z,14.10
2019-01-26T13:07:17.322Z,12.13
2019-01-26T13:17:22.128Z,9.90
2019-01-26T13:27:26.700Z,8.70
2019-01-26T13:37:31.131Z,8.03
2019-01-26T13:47:37.955Z,7.63
2019-01-26T13:57:42.116Z,7.20
2019-01-26T14:07:46.694Z,7.10
2019-01-26T14:17:51.287Z,7.37
2019-01-26T14:27:55.802Z,11.33
2019-01-26T14:38:00.217Z,8.40
2019-01-26T14:48:04.452Z,8.50
2019-01-26T14:58:11.451Z,8.20
2019-01-26T15:08:16.400Z,7.30
2019-01-26T15:18:20.762Z,7.60
2019-01-26T15:28:25.127Z,7.10
2019-01-26T15:38:29.556Z,6.60
2019-01-26T15:48:34.029Z,6.70
2019-01-26T15:58:38.397Z,6.90
2019-01-26T16:08:42.814Z,6.47
2019-01-26T16:18:47.230Z,7.00
2019-01-26T16:28:51.947Z,6.73
2019-01-26T16:38:56.467Z,6.00
2019-01-26T16:49:00.718Z,6.60
2019-01-26T16:59:05.439Z,6.50
2019-01-26T17:09:09.970Z,6.77
2019-01-26T17:19:14.451Z,6.77
2019-01-26T17:29:19.913Z,12.50
2019-01-26T17:39:24.272Z,9.87
2019-01-26T17:49:28.591Z,7.43
2019-01-26T17:59:32.937Z,9.83
2019-01-26T18:09:37.754Z,9.00
2019-01-26T18:19:42.490Z,9.17
2019-01-26T18:29:46.952Z,8.07
2019-01-26T18:39:51.519Z,9.47
2019-01-26T18:49:55.744Z,8.67
2019-01-26T19:00:00.166Z,9.23
2019-01-26T19:10:08.007Z,8.23
2019-01-26T19:20:14.373Z,8.03
2019-01-26T19:30:23.152Z,9.30
2019-01-26T19:40:27.706Z,9.87
2019-01-26T19:50:32.114Z,9.23
2019-01-26T20:00:36.534Z,9.27
2019-01-26T20:10:41.057Z,8.37
2019-01-26T20:20:45.862Z,9.33
2019-01-26T20:30:50.807Z,9.90
2019-01-26T20:40:55.292Z,10.97
2019-01-26T20:50:59.853Z,10.07
2019-01-26T21:01:05.250Z,10.63
2019-01-26T21:11:10.021Z,11.37
2019-01-26T21:21:14.984Z,10.57
2019-01-26T21:31:19.534Z,11.67
2019-01-26T21:41:24.307Z,12.30
2019-01-26T21:51:28.793Z,12.70
2019-01-26T22:01:38.241Z,11.67
2019-01-26T22:11:42.692Z,11.67
2019-01-26T22:21:47.706Z,10.50
2019-01-26T22:31:52.217Z,9.70
2019-01-26T22:41:57.091Z,9.33
2019-01-26T22:52:01.343Z,9.40
2019-01-26T23:02:08.392Z,8.90
2019-01-26T23:12:31.177Z,8.70
2019-01-26T23:22:47.727Z,8.57
2019-01-26T23:32:52.087Z,8.33
2019-01-26T23:42:56.460Z,7.93
2019-01-26T23:53:00.731Z,8.63
